Kibble, Illinois
Current Conditions -  °F | °C
As of 2:15 AM on Monday 24 Nov 2014 (Local Time) from KRSV Reporting Station
Overcast Overcast  
Wind Chill: 56°   Ceiling: 2600
Heat Index: 56°   Visibility: 10mi
Dew Point: 54°   Wind: 13mph
Humidity: 93%   Direction: 190°S
Pressure: 29.23"   Gusts: 18mph
Location:  39.0119°N, 87.8886°W
Report Text: KRSV 240815Z AUTO 19011G16KT 10SM SCT019 BKN026 OVC042 14/12 A2923 RMK AO2 T01350124
Loading
Personal Weather Stations






























Interactive Weather Map New forecast layout! Learn more

10-Day Weather Forecast

Advertisements
Track Severe Weather on mobile